sensor_id;sensor_type;location;lat;lon;timestamp;P1;durP1;ratioP1;P2;durP2;ratioP2
18695;SDS011;22617;43.690;27.956;2023-03-20T00:00:50;55.80;;;18.13;;
18695;SDS011;22617;43.690;27.956;2023-03-20T00:05:54;57.20;;;20.43;;
18695;SDS011;22617;43.690;27.956;2023-03-20T00:10:57;60.43;;;17.87;;
18695;SDS011;22617;43.690;27.956;2023-03-20T00:16:03;53.60;;;18.53;;
18695;SDS011;22617;43.690;27.956;2023-03-20T00:21:08;104.63;;;19.10;;
18695;SDS011;22617;43.690;27.956;2023-03-20T00:26:17;80.00;;;19.70;;
18695;SDS011;22617;43.690;27.956;2023-03-20T00:31:24;67.93;;;17.97;;
18695;SDS011;22617;43.690;27.956;2023-03-20T00:36:29;65.70;;;17.03;;
18695;SDS011;22617;43.690;27.956;2023-03-20T00:41:34;103.17;;;19.90;;
18695;SDS011;22617;43.690;27.956;2023-03-20T00:46:45;55.23;;;17.87;;
18695;SDS011;22617;43.690;27.956;2023-03-20T00:51:52;52.67;;;16.30;;
18695;SDS011;22617;43.690;27.956;2023-03-20T00:56:56;60.77;;;17.03;;
18695;SDS011;22617;43.690;27.956;2023-03-20T01:02:03;56.40;;;16.90;;
18695;SDS011;22617;43.690;27.956;2023-03-20T01:07:09;58.13;;;17.47;;
18695;SDS011;22617;43.690;27.956;2023-03-20T01:12:16;62.40;;;16.83;;
18695;SDS011;22617;43.690;27.956;2023-03-20T01:17:21;56.50;;;18.23;;
18695;SDS011;22617;43.690;27.956;2023-03-20T01:22:26;61.77;;;17.77;;
18695;SDS011;22617;43.690;27.956;2023-03-20T01:27:29;68.23;;;18.57;;
18695;SDS011;22617;43.690;27.956;2023-03-20T01:32:34;59.77;;;16.67;;
18695;SDS011;22617;43.690;27.956;2023-03-20T01:37:38;67.17;;;18.80;;
18695;SDS011;22617;43.690;27.956;2023-03-20T01:42:43;83.73;;;18.57;;
18695;SDS011;22617;43.690;27.956;2023-03-20T01:47:48;60.37;;;17.07;;
18695;SDS011;22617;43.690;27.956;2023-03-20T01:52:57;64.23;;;18.53;;
18695;SDS011;22617;43.690;27.956;2023-03-20T01:58:12;61.07;;;18.93;;
18695;SDS011;22617;43.690;27.956;2023-03-20T02:03:21;54.90;;;17.83;;
18695;SDS011;22617;43.690;27.956;2023-03-20T02:08:49;56.17;;;15.53;;
18695;SDS011;22617;43.690;27.956;2023-03-20T02:13:56;76.87;;;18.63;;
18695;SDS011;22617;43.690;27.956;2023-03-20T02:19:12;53.67;;;15.97;;
18695;SDS011;22617;43.690;27.956;2023-03-20T02:30:08;59.63;;;17.23;;
18695;SDS011;22617;43.690;27.956;2023-03-20T02:41:11;66.83;;;16.83;;
18695;SDS011;22617;43.690;27.956;2023-03-20T02:46:26;85.40;;;17.17;;
18695;SDS011;22617;43.690;27.956;2023-03-20T02:51:36;59.20;;;15.10;;
18695;SDS011;22617;43.690;27.956;2023-03-20T02:56:50;63.43;;;15.70;;
18695;SDS011;22617;43.690;27.956;2023-03-20T03:02:03;96.87;;;16.93;;
18695;SDS011;22617;43.690;27.956;2023-03-20T03:07:10;79.07;;;15.33;;
18695;SDS011;22617;43.690;27.956;2023-03-20T03:12:20;84.20;;;16.33;;
18695;SDS011;22617;43.690;27.956;2023-03-20T03:17:29;43.87;;;13.77;;
18695;SDS011;22617;43.690;27.956;2023-03-20T03:22:37;69.13;;;16.53;;
18695;SDS011;22617;43.690;27.956;2023-03-20T03:27:42;67.70;;;15.23;;
18695;SDS011;22617;43.690;27.956;2023-03-20T03:32:48;77.80;;;15.87;;
18695;SDS011;22617;43.690;27.956;2023-03-20T03:37:54;73.13;;;15.40;;
18695;SDS011;22617;43.690;27.956;2023-03-20T03:43:07;80.73;;;16.30;;
18695;SDS011;22617;43.690;27.956;2023-03-20T03:48:18;62.80;;;16.20;;
18695;SDS011;22617;43.690;27.956;2023-03-20T03:53:26;35.57;;;14.67;;
18695;SDS011;22617;43.690;27.956;2023-03-20T03:58:37;53.97;;;14.80;;
18695;SDS011;22617;43.690;27.956;2023-03-20T04:03:45;107.57;;;17.77;;
18695;SDS011;22617;43.690;27.956;2023-03-20T04:08:51;62.80;;;15.60;;
18695;SDS011;22617;43.690;27.956;2023-03-20T04:13:57;79.17;;;17.67;;
18695;SDS011;22617;43.690;27.956;2023-03-20T04:19:00;93.47;;;17.67;;
18695;SDS011;22617;43.690;27.956;2023-03-20T04:24:04;89.30;;;17.13;;
18695;SDS011;22617;43.690;27.956;2023-03-20T04:29:10;46.70;;;15.93;;
18695;SDS011;22617;43.690;27.956;2023-03-20T04:34:37;99.07;;;16.63;;
18695;SDS011;22617;43.690;27.956;2023-03-20T04:39:56;73.77;;;16.47;;
18695;SDS011;22617;43.690;27.956;2023-03-20T04:45:02;94.30;;;16.37;;
18695;SDS011;22617;43.690;27.956;2023-03-20T04:50:07;71.10;;;14.40;;
18695;SDS011;22617;43.690;27.956;2023-03-20T04:55:11;155.30;;;18.30;;
18695;SDS011;22617;43.690;27.956;2023-03-20T05:00:16;100.27;;;15.73;;
18695;SDS011;22617;43.690;27.956;2023-03-20T05:05:20;72.93;;;14.67;;
18695;SDS011;22617;43.690;27.956;2023-03-20T05:10:24;67.83;;;14.10;;
18695;SDS011;22617;43.690;27.956;2023-03-20T05:15:35;81.10;;;14.43;;
18695;SDS011;22617;43.690;27.956;2023-03-20T05:20:57;45.53;;;14.30;;
18695;SDS011;22617;43.690;27.956;2023-03-20T05:26:24;99.77;;;19.30;;
18695;SDS011;22617;43.690;27.956;2023-03-20T05:31:48;51.27;;;14.97;;
18695;SDS011;22617;43.690;27.956;2023-03-20T05:37:05;61.50;;;15.83;;
18695;SDS011;22617;43.690;27.956;2023-03-20T05:42:46;107.40;;;18.17;;
18695;SDS011;22617;43.690;27.956;2023-03-20T05:48:10;100.87;;;18.83;;
18695;SDS011;22617;43.690;27.956;2023-03-20T05:53:13;70.67;;;17.97;;
18695;SDS011;22617;43.690;27.956;2023-03-20T05:58:17;64.10;;;17.77;;
18695;SDS011;22617;43.690;27.956;2023-03-20T06:03:37;89.20;;;18.27;;
18695;SDS011;22617;43.690;27.956;2023-03-20T06:08:47;80.10;;;17.63;;
18695;SDS011;22617;43.690;27.956;2023-03-20T06:13:51;80.03;;;17.73;;
18695;SDS011;22617;43.690;27.956;2023-03-20T06:18:59;101.63;;;18.67;;
18695;SDS011;22617;43.690;27.956;2023-03-20T06:24:03;97.77;;;19.17;;
18695;SDS011;22617;43.690;27.956;2023-03-20T06:29:07;79.80;;;19.17;;
18695;SDS011;22617;43.690;27.956;2023-03-20T06:34:13;81.67;;;19.17;;
18695;SDS011;22617;43.690;27.956;2023-03-20T06:39:19;84.07;;;18.37;;
18695;SDS011;22617;43.690;27.956;2023-03-20T06:44:22;89.10;;;18.83;;
18695;SDS011;22617;43.690;27.956;2023-03-20T06:49:48;59.43;;;18.10;;
18695;SDS011;22617;43.690;27.956;2023-03-20T06:54:52;53.83;;;19.20;;
18695;SDS011;22617;43.690;27.956;2023-03-20T06:59:56;54.93;;;19.37;;
18695;SDS011;22617;43.690;27.956;2023-03-20T07:05:02;51.50;;;19.87;;
18695;SDS011;22617;43.690;27.956;2023-03-20T07:10:07;51.53;;;19.20;;
18695;SDS011;22617;43.690;27.956;2023-03-20T07:15:16;50.60;;;19.20;;
18695;SDS011;22617;43.690;27.956;2023-03-20T07:20:22;50.27;;;19.50;;
18695;SDS011;22617;43.690;27.956;2023-03-20T07:25:26;45.03;;;18.93;;
18695;SDS011;22617;43.690;27.956;2023-03-20T07:30:46;48.83;;;20.23;;
18695;SDS011;22617;43.690;27.956;2023-03-20T07:35:53;42.60;;;17.57;;
18695;SDS011;22617;43.690;27.956;2023-03-20T07:40:57;44.67;;;18.00;;
18695;SDS011;22617;43.690;27.956;2023-03-20T07:46:03;40.83;;;18.33;;
18695;SDS011;22617;43.690;27.956;2023-03-20T07:51:13;44.73;;;19.10;;
18695;SDS011;22617;43.690;27.956;2023-03-20T07:56:17;41.50;;;18.07;;
18695;SDS011;22617;43.690;27.956;2023-03-20T08:01:20;45.33;;;18.87;;
18695;SDS011;22617;43.690;27.956;2023-03-20T08:06:25;41.37;;;18.17;;
18695;SDS011;22617;43.690;27.956;2023-03-20T08:11:29;42.00;;;18.63;;
18695;SDS011;22617;43.690;27.956;2023-03-20T08:16:35;46.20;;;18.53;;
18695;SDS011;22617;43.690;27.956;2023-03-20T08:21:40;43.43;;;18.90;;
18695;SDS011;22617;43.690;27.956;2023-03-20T08:26:43;41.13;;;18.17;;
18695;SDS011;22617;43.690;27.956;2023-03-20T08:31:47;41.37;;;18.30;;
18695;SDS011;22617;43.690;27.956;2023-03-20T08:36:52;44.80;;;17.67;;
18695;SDS011;22617;43.690;27.956;2023-03-20T08:41:55;47.30;;;18.40;;
18695;SDS011;22617;43.690;27.956;2023-03-20T08:47:01;40.40;;;17.43;;
18695;SDS011;22617;43.690;27.956;2023-03-20T08:52:07;40.20;;;16.93;;
18695;SDS011;22617;43.690;27.956;2023-03-20T08:57:12;37.50;;;17.20;;
18695;SDS011;22617;43.690;27.956;2023-03-20T09:02:16;35.83;;;16.50;;
18695;SDS011;22617;43.690;27.956;2023-03-20T09:07:21;33.83;;;15.67;;
18695;SDS011;22617;43.690;27.956;2023-03-20T09:12:24;39.53;;;17.50;;
18695;SDS011;22617;43.690;27.956;2023-03-20T09:17:28;35.80;;;16.70;;
18695;SDS011;22617;43.690;27.956;2023-03-20T09:22:33;37.17;;;16.90;;
18695;SDS011;22617;43.690;27.956;2023-03-20T09:27:37;35.83;;;16.53;;
18695;SDS011;22617;43.690;27.956;2023-03-20T09:32:41;35.20;;;16.30;;
18695;SDS011;22617;43.690;27.956;2023-03-20T09:37:46;32.93;;;15.20;;
18695;SDS011;22617;43.690;27.956;2023-03-20T09:42:51;30.30;;;14.33;;
18695;SDS011;22617;43.690;27.956;2023-03-20T09:48:04;34.40;;;14.30;;
18695;SDS011;22617;43.690;27.956;2023-03-20T09:53:19;23.80;;;12.93;;
18695;SDS011;22617;43.690;27.956;2023-03-20T09:58:30;30.30;;;15.00;;
18695;SDS011;22617;43.690;27.956;2023-03-20T10:03:38;30.37;;;14.97;;
18695;SDS011;22617;43.690;27.956;2023-03-20T10:08:47;25.93;;;13.73;;
18695;SDS011;22617;43.690;27.956;2023-03-20T10:13:58;26.67;;;13.70;;
18695;SDS011;22617;43.690;27.956;2023-03-20T10:19:15;22.77;;;12.30;;
18695;SDS011;22617;43.690;27.956;2023-03-20T10:24:27;23.57;;;12.70;;
18695;SDS011;22617;43.690;27.956;2023-03-20T10:29:37;28.63;;;12.70;;
18695;SDS011;22617;43.690;27.956;2023-03-20T10:34:54;23.27;;;12.27;;
18695;SDS011;22617;43.690;27.956;2023-03-20T10:40:16;24.30;;;11.67;;
18695;SDS011;22617;43.690;27.956;2023-03-20T10:45:32;24.80;;;11.73;;
18695;SDS011;22617;43.690;27.956;2023-03-20T10:50:40;22.10;;;11.97;;
18695;SDS011;22617;43.690;27.956;2023-03-20T10:55:51;22.23;;;10.80;;
18695;SDS011;22617;43.690;27.956;2023-03-20T11:00:59;22.40;;;10.17;;
18695;SDS011;22617;43.690;27.956;2023-03-20T11:06:05;21.00;;;10.47;;
18695;SDS011;22617;43.690;27.956;2023-03-20T11:11:17;17.50;;;10.13;;
18695;SDS011;22617;43.690;27.956;2023-03-20T11:16:24;21.97;;;10.67;;
18695;SDS011;22617;43.690;27.956;2023-03-20T11:21:32;22.83;;;11.07;;
18695;SDS011;22617;43.690;27.956;2023-03-20T11:26:41;19.17;;;10.83;;
18695;SDS011;22617;43.690;27.956;2023-03-20T11:31:44;19.20;;;9.50;;
18695;SDS011;22617;43.690;27.956;2023-03-20T11:36:53;22.00;;;10.57;;
18695;SDS011;22617;43.690;27.956;2023-03-20T11:42:22;23.07;;;10.17;;
18695;SDS011;22617;43.690;27.956;2023-03-20T11:47:30;16.83;;;9.13;;
18695;SDS011;22617;43.690;27.956;2023-03-20T11:52:36;18.93;;;9.03;;
18695;SDS011;22617;43.690;27.956;2023-03-20T11:57:43;18.23;;;9.27;;
18695;SDS011;22617;43.690;27.956;2023-03-20T12:02:48;19.70;;;9.50;;
18695;SDS011;22617;43.690;27.956;2023-03-20T12:07:52;20.83;;;9.50;;
18695;SDS011;22617;43.690;27.956;2023-03-20T12:13:01;23.17;;;8.63;;
18695;SDS011;22617;43.690;27.956;2023-03-20T12:18:09;16.70;;;8.10;;
18695;SDS011;22617;43.690;27.956;2023-03-20T12:23:21;19.80;;;8.10;;
18695;SDS011;22617;43.690;27.956;2023-03-20T12:28:35;16.80;;;7.87;;
18695;SDS011;22617;43.690;27.956;2023-03-20T12:33:44;18.23;;;8.07;;
18695;SDS011;22617;43.690;27.956;2023-03-20T12:38:54;22.87;;;8.23;;
18695;SDS011;22617;43.690;27.956;2023-03-20T12:44:04;19.17;;;6.90;;
18695;SDS011;22617;43.690;27.956;2023-03-20T12:49:28;16.47;;;7.23;;
18695;SDS011;22617;43.690;27.956;2023-03-20T12:54:47;21.40;;;7.50;;
18695;SDS011;22617;43.690;27.956;2023-03-20T13:00:11;15.13;;;7.07;;
18695;SDS011;22617;43.690;27.956;2023-03-20T13:05:27;17.43;;;7.57;;
18695;SDS011;22617;43.690;27.956;2023-03-20T13:10:38;19.07;;;7.30;;
18695;SDS011;22617;43.690;27.956;2023-03-20T13:15:48;17.93;;;7.33;;
18695;SDS011;22617;43.690;27.956;2023-03-20T13:21:05;17.27;;;7.30;;
18695;SDS011;22617;43.690;27.956;2023-03-20T13:26:16;14.43;;;7.33;;
18695;SDS011;22617;43.690;27.956;2023-03-20T13:31:35;15.70;;;7.13;;
18695;SDS011;22617;43.690;27.956;2023-03-20T13:36:56;21.47;;;6.73;;
18695;SDS011;22617;43.690;27.956;2023-03-20T13:42:26;18.07;;;7.57;;
18695;SDS011;22617;43.690;27.956;2023-03-20T13:47:35;17.73;;;6.97;;
18695;SDS011;22617;43.690;27.956;2023-03-20T13:52:41;14.93;;;7.30;;
18695;SDS011;22617;43.690;27.956;2023-03-20T13:57:58;20.50;;;7.40;;
18695;SDS011;22617;43.690;27.956;2023-03-20T14:03:22;17.00;;;6.67;;
18695;SDS011;22617;43.690;27.956;2023-03-20T14:08:31;31.13;;;7.80;;
18695;SDS011;22617;43.690;27.956;2023-03-20T14:13:37;24.70;;;7.87;;
18695;SDS011;22617;43.690;27.956;2023-03-20T14:18:44;20.07;;;6.60;;
18695;SDS011;22617;43.690;27.956;2023-03-20T14:23:50;16.27;;;6.70;;
18695;SDS011;22617;43.690;27.956;2023-03-20T14:29:19;18.87;;;7.87;;
18695;SDS011;22617;43.690;27.956;2023-03-20T14:34:47;17.47;;;6.93;;
18695;SDS011;22617;43.690;27.956;2023-03-20T14:39:52;22.67;;;7.73;;
18695;SDS011;22617;43.690;27.956;2023-03-20T14:45:23;23.40;;;7.23;;
18695;SDS011;22617;43.690;27.956;2023-03-20T14:50:34;26.03;;;9.47;;
18695;SDS011;22617;43.690;27.956;2023-03-20T15:01:13;86.50;;;27.20;;
18695;SDS011;22617;43.690;27.956;2023-03-20T15:06:22;23.33;;;7.87;;
18695;SDS011;22617;43.690;27.956;2023-03-20T15:11:28;16.67;;;7.33;;
18695;SDS011;22617;43.690;27.956;2023-03-20T15:16:33;21.07;;;6.70;;
18695;SDS011;22617;43.690;27.956;2023-03-20T15:21:40;19.37;;;8.00;;
18695;SDS011;22617;43.690;27.956;2023-03-20T15:26:49;40.60;;;13.07;;
18695;SDS011;22617;43.690;27.956;2023-03-20T15:31:55;32.70;;;12.50;;
18695;SDS011;22617;43.690;27.956;2023-03-20T15:37:17;32.67;;;11.10;;
18695;SDS011;22617;43.690;27.956;2023-03-20T15:42:24;25.17;;;9.13;;
18695;SDS011;22617;43.690;27.956;2023-03-20T15:47:28;19.20;;;9.00;;
18695;SDS011;22617;43.690;27.956;2023-03-20T15:52:35;19.73;;;9.07;;
18695;SDS011;22617;43.690;27.956;2023-03-20T15:57:44;27.13;;;9.40;;
18695;SDS011;22617;43.690;27.956;2023-03-20T16:02:51;33.93;;;12.50;;
18695;SDS011;22617;43.690;27.956;2023-03-20T16:07:57;35.27;;;12.70;;
18695;SDS011;22617;43.690;27.956;2023-03-20T16:13:14;23.53;;;9.47;;
18695;SDS011;22617;43.690;27.956;2023-03-20T16:18:19;21.17;;;8.20;;
18695;SDS011;22617;43.690;27.956;2023-03-20T16:23:31;27.10;;;9.60;;
18695;SDS011;22617;43.690;27.956;2023-03-20T16:28:37;26.63;;;9.63;;
18695;SDS011;22617;43.690;27.956;2023-03-20T16:33:41;24.40;;;10.53;;
18695;SDS011;22617;43.690;27.956;2023-03-20T16:38:54;27.87;;;9.67;;
18695;SDS011;22617;43.690;27.956;2023-03-20T16:44:02;33.57;;;10.27;;
18695;SDS011;22617;43.690;27.956;2023-03-20T16:55:12;32.57;;;11.67;;
18695;SDS011;22617;43.690;27.956;2023-03-20T17:00:19;33.50;;;12.43;;
18695;SDS011;22617;43.690;27.956;2023-03-20T17:05:33;34.80;;;12.53;;
18695;SDS011;22617;43.690;27.956;2023-03-20T17:10:48;29.23;;;12.23;;
18695;SDS011;22617;43.690;27.956;2023-03-20T17:15:55;38.87;;;13.40;;
18695;SDS011;22617;43.690;27.956;2023-03-20T17:20:59;35.10;;;12.40;;
18695;SDS011;22617;43.690;27.956;2023-03-20T17:26:07;37.27;;;12.93;;
18695;SDS011;22617;43.690;27.956;2023-03-20T17:31:15;36.07;;;13.03;;
18695;SDS011;22617;43.690;27.956;2023-03-20T17:36:20;31.03;;;12.50;;
18695;SDS011;22617;43.690;27.956;2023-03-20T17:41:28;35.80;;;12.97;;
18695;SDS011;22617;43.690;27.956;2023-03-20T17:46:32;38.83;;;13.53;;
18695;SDS011;22617;43.690;27.956;2023-03-20T17:51:56;42.63;;;13.83;;
18695;SDS011;22617;43.690;27.956;2023-03-20T17:57:01;34.23;;;12.87;;
18695;SDS011;22617;43.690;27.956;2023-03-20T18:02:05;39.97;;;13.77;;
18695;SDS011;22617;43.690;27.956;2023-03-20T18:07:09;39.83;;;14.17;;
18695;SDS011;22617;43.690;27.956;2023-03-20T18:12:15;45.27;;;15.03;;
18695;SDS011;22617;43.690;27.956;2023-03-20T18:17:21;43.40;;;14.70;;
18695;SDS011;22617;43.690;27.956;2023-03-20T18:22:25;50.73;;;15.50;;
18695;SDS011;22617;43.690;27.956;2023-03-20T18:27:32;40.40;;;14.10;;
18695;SDS011;22617;43.690;27.956;2023-03-20T18:32:36;36.40;;;12.87;;
18695;SDS011;22617;43.690;27.956;2023-03-20T18:37:39;39.50;;;13.33;;
18695;SDS011;22617;43.690;27.956;2023-03-20T18:42:45;37.63;;;12.13;;
18695;SDS011;22617;43.690;27.956;2023-03-20T18:47:49;33.10;;;14.07;;
18695;SDS011;22617;43.690;27.956;2023-03-20T18:52:54;37.67;;;13.23;;
18695;SDS011;22617;43.690;27.956;2023-03-20T18:58:00;34.20;;;13.10;;
18695;SDS011;22617;43.690;27.956;2023-03-20T19:03:04;34.07;;;13.27;;
18695;SDS011;22617;43.690;27.956;2023-03-20T19:08:10;38.57;;;13.90;;
18695;SDS011;22617;43.690;27.956;2023-03-20T19:13:19;43.73;;;14.77;;
18695;SDS011;22617;43.690;27.956;2023-03-20T19:18:24;43.93;;;14.03;;
18695;SDS011;22617;43.690;27.956;2023-03-20T19:23:28;46.50;;;14.73;;
18695;SDS011;22617;43.690;27.956;2023-03-20T19:28:33;45.93;;;15.63;;
18695;SDS011;22617;43.690;27.956;2023-03-20T19:33:41;44.87;;;14.10;;
18695;SDS011;22617;43.690;27.956;2023-03-20T19:38:47;41.83;;;14.93;;
18695;SDS011;22617;43.690;27.956;2023-03-20T19:43:53;39.77;;;14.33;;
18695;SDS011;22617;43.690;27.956;2023-03-20T19:48:57;41.03;;;13.97;;
18695;SDS011;22617;43.690;27.956;2023-03-20T19:54:01;39.13;;;14.57;;
18695;SDS011;22617;43.690;27.956;2023-03-20T19:59:06;35.20;;;15.23;;
18695;SDS011;22617;43.690;27.956;2023-03-20T20:04:10;50.90;;;15.67;;
18695;SDS011;22617;43.690;27.956;2023-03-20T20:09:14;36.87;;;15.33;;
18695;SDS011;22617;43.690;27.956;2023-03-20T20:14:20;42.83;;;15.20;;
18695;SDS011;22617;43.690;27.956;2023-03-20T20:19:27;38.67;;;15.33;;
18695;SDS011;22617;43.690;27.956;2023-03-20T20:24:31;42.63;;;15.67;;
18695;SDS011;22617;43.690;27.956;2023-03-20T20:29:36;36.03;;;14.80;;
18695;SDS011;22617;43.690;27.956;2023-03-20T20:34:39;34.47;;;15.20;;
18695;SDS011;22617;43.690;27.956;2023-03-20T20:40:04;38.77;;;15.93;;
18695;SDS011;22617;43.690;27.956;2023-03-20T20:45:10;40.53;;;15.37;;
18695;SDS011;22617;43.690;27.956;2023-03-20T20:50:16;34.83;;;15.27;;
18695;SDS011;22617;43.690;27.956;2023-03-20T20:55:21;38.17;;;14.97;;
18695;SDS011;22617;43.690;27.956;2023-03-20T21:00:27;33.33;;;15.17;;
18695;SDS011;22617;43.690;27.956;2023-03-20T21:05:50;41.23;;;17.70;;
18695;SDS011;22617;43.690;27.956;2023-03-20T21:10:54;40.73;;;17.07;;
18695;SDS011;22617;43.690;27.956;2023-03-20T21:15:58;41.57;;;16.10;;
18695;SDS011;22617;43.690;27.956;2023-03-20T21:21:03;40.33;;;16.37;;
18695;SDS011;22617;43.690;27.956;2023-03-20T21:26:07;39.87;;;16.83;;
18695;SDS011;22617;43.690;27.956;2023-03-20T21:31:21;44.73;;;17.30;;
18695;SDS011;22617;43.690;27.956;2023-03-20T21:36:30;39.67;;;16.07;;
18695;SDS011;22617;43.690;27.956;2023-03-20T21:41:35;46.20;;;16.77;;
18695;SDS011;22617;43.690;27.956;2023-03-20T21:46:42;50.07;;;17.83;;
18695;SDS011;22617;43.690;27.956;2023-03-20T21:52:06;48.93;;;17.40;;
18695;SDS011;22617;43.690;27.956;2023-03-20T21:57:34;49.73;;;18.60;;
18695;SDS011;22617;43.690;27.956;2023-03-20T22:02:59;43.17;;;17.30;;
18695;SDS011;22617;43.690;27.956;2023-03-20T22:08:12;45.27;;;16.47;;
18695;SDS011;22617;43.690;27.956;2023-03-20T22:13:36;45.37;;;17.60;;
18695;SDS011;22617;43.690;27.956;2023-03-20T22:19:01;41.40;;;16.10;;
18695;SDS011;22617;43.690;27.956;2023-03-20T22:24:24;52.90;;;18.77;;
18695;SDS011;22617;43.690;27.956;2023-03-20T22:29:48;46.17;;;17.13;;
18695;SDS011;22617;43.690;27.956;2023-03-20T22:35:13;47.43;;;17.67;;
18695;SDS011;22617;43.690;27.956;2023-03-20T22:40:37;40.00;;;16.90;;
18695;SDS011;22617;43.690;27.956;2023-03-20T22:46:00;49.23;;;17.87;;
18695;SDS011;22617;43.690;27.956;2023-03-20T22:51:25;45.83;;;18.03;;
18695;SDS011;22617;43.690;27.956;2023-03-20T22:56:36;52.00;;;17.77;;
18695;SDS011;22617;43.690;27.956;2023-03-20T23:01:39;42.43;;;16.67;;
18695;SDS011;22617;43.690;27.956;2023-03-20T23:06:44;43.93;;;17.30;;
18695;SDS011;22617;43.690;27.956;2023-03-20T23:11:48;50.23;;;18.73;;
18695;SDS011;22617;43.690;27.956;2023-03-20T23:16:51;40.10;;;15.90;;
18695;SDS011;22617;43.690;27.956;2023-03-20T23:21:56;44.67;;;16.10;;
18695;SDS011;22617;43.690;27.956;2023-03-20T23:27:00;46.30;;;16.07;;
18695;SDS011;22617;43.690;27.956;2023-03-20T23:32:04;40.87;;;14.87;;
18695;SDS011;22617;43.690;27.956;2023-03-20T23:37:09;46.53;;;15.80;;
18695;SDS011;22617;43.690;27.956;2023-03-20T23:42:13;48.77;;;14.93;;
18695;SDS011;22617;43.690;27.956;2023-03-20T23:47:30;36.57;;;14.90;;
18695;SDS011;22617;43.690;27.956;2023-03-20T23:52:47;41.07;;;16.00;;
18695;SDS011;22617;43.690;27.956;2023-03-20T23:58:01;44.93;;;15.60;;
